Time;durP1;ratioP1;P1;durP2;ratioP2;P2;SDS_P1;SDS_P2;PMS_P1;PMS_P2;Temp;Humidity;BMP_temperature;BMP_pressure;BME280_temperature;BME280_humidity;BME280_pressure;Samples;Min_cycle;Max_cycle;Signal;HPM_P1;HPM_P2
2022/10/28 00:00:26;;;;;;;11.95;2.50;;;26.50;20.60;;;;;;5042998;28;20139;-62
2022/10/28 00:02:53;;;;;;;8.38;1.45;;;27.10;29.90;;;;;;5039024;28;20071;-62
2022/10/28 00:05:19;;;;;;;10.85;1.73;;;;;;;;;;5042393;28;20044;-60
2022/10/28 00:07:46;;;;;;;7.10;1.90;;;;;;;;;;5037118;28;20156;-66
2022/10/28 00:10:12;;;;;;;10.10;1.80;;;26.50;41.20;;;;;;5040320;28;20059;-64
2022/10/28 00:12:39;;;;;;;13.70;1.73;;;;;;;;;;5040034;28;20531;-63
2022/10/28 00:15:05;;;;;;;13.23;1.42;;;27.20;50.40;;;;;;5038030;28;20132;-62
2022/10/28 00:17:32;;;;;;;6.97;1.40;;;26.20;56.20;;;;;;5036545;28;20127;-63
2022/10/28 00:19:58;;;;;;;6.88;1.63;;;26.90;52.00;;;;;;5037982;28;20393;-63
2022/10/28 00:22:24;;;;;;;6.47;1.20;;;26.70;51.80;;;;;;5040160;28;20523;-63
2022/10/28 00:24:51;;;;;;;9.50;1.65;;;26.00;50.80;;;;;;5036679;28;20578;-63
2022/10/28 00:27:17;;;;;;;8.23;1.30;;;26.40;51.40;;;;;;5037448;28;20079;-61
2022/10/28 00:29:44;;;;;;;11.05;2.42;;;26.10;49.50;;;;;;5037232;28;20094;-62
2022/10/28 00:32:10;;;;;;;4.97;1.85;;;26.20;37.50;;;;;;5037123;28;20064;-60
2022/10/28 00:34:37;;;;;;;13.82;1.75;;;25.80;34.30;;;;;;5038378;28;20093;-63
2022/10/28 00:37:03;;;;;;;16.85;2.35;;;26.20;28.00;;;;;;5038764;28;20074;-63
2022/10/28 00:39:30;;;;;;;12.13;2.47;;;;;;;;;;5036967;28;20080;-59
2022/10/28 00:42:02;;;;;;;13.63;2.55;;;25.70;23.00;;;;;;5038344;28;20091;-62
2022/10/28 00:44:57;;;;;;;12.73;2.15;;;25.70;23.60;;;;;;5036128;28;20077;-63
2022/10/28 00:47:50;;;;;;;14.68;1.90;;;25.70;46.50;;;;;;5035508;28;20080;-62
2022/10/28 00:50:37;;;;;;;11.52;1.88;;;25.50;45.30;;;;;;5041663;28;20080;-59
2022/10/28 00:53:09;;;;;;;;;;;25.30;24.80;;;;;;5038663;28;20145;-62
2022/10/28 00:55:36;;;;;;;6.97;1.73;;;24.60;45.80;;;;;;5036456;28;20002;-62
2022/10/28 00:58:05;;;;;;;11.88;1.75;;;24.40;31.70;;;;;;5040309;28;20134;-63
2022/10/28 01:00:31;;;;;;;14.18;1.77;;;24.90;26.20;;;;;;5040410;28;20069;-62
2022/10/28 01:02:58;;;;;;;13.77;1.92;;;24.80;26.60;;;;;;5038504;28;20084;-63
2022/10/28 01:05:31;;;;;;;16.10;2.10;;;24.70;26.90;;;;;;5038319;28;20153;-64
2022/10/28 01:08:00;;;;;;;18.25;2.10;;;24.50;27.30;;;;;;5038184;28;20081;-62
2022/10/28 01:10:42;;;;;;;17.65;2.47;;;24.40;27.30;;;;;;5036384;28;20084;-63
2022/10/28 01:13:51;;;;;;;17.55;2.92;;;24.30;27.50;;;;;;5035547;28;20135;-62
2022/10/28 01:16:25;;;;;;;19.45;2.80;;;24.30;27.40;;;;;;4987383;28;20074;-62
2022/10/28 01:19:40;;;;;;;13.13;2.80;;;23.20;28.10;;;;;;4996037;28;20092;-62
2022/10/28 01:22:37;;;;;;;21.98;3.28;;;23.90;28.70;;;;;;4985476;28;20115;-63
2022/10/28 01:25:26;;;;;;;20.63;3.53;;;23.80;28.00;;;;;;4988656;28;20126;-64
2022/10/28 01:28:16;;;;;;;20.15;3.47;;;23.70;28.80;;;;;;4998220;28;20739;-63
2022/10/28 01:31:09;;;;;;;30.10;3.60;;;23.50;29.80;;;;;;4986025;28;20094;-60
2022/10/28 01:33:46;;;;;;;21.25;3.45;;;23.50;29.70;;;;;;4990225;28;20094;-60
2022/10/28 01:36:22;;;;;;;;;;;23.40;30.80;;;;;;4976039;28;20077;-62
2022/10/28 01:38:51;;;;;;;25.58;3.88;;;23.30;30.60;;;;;;4990807;28;19965;-62
2022/10/28 01:41:32;;;;;;;28.30;4.53;;;23.20;30.10;;;;;;4994632;28;20086;-64
2022/10/28 01:44:21;;;;;;;27.67;5.30;;;23.10;30.80;;;;;;4989747;28;20113;-61
2022/10/28 01:47:15;;;;;;;27.77;5.50;;;23.00;30.50;;;;;;5009914;28;20086;-63
2022/10/28 01:50:03;;;;;;;26.00;4.55;;;22.80;31.20;;;;;;5041890;28;20558;-63
2022/10/28 01:52:32;;;;;;;21.77;4.00;;;22.80;30.80;;;;;;5038956;28;20105;-61
2022/10/28 01:55:07;;;;;;;35.65;4.10;;;22.80;32.60;;;;;;5040262;28;20070;-61
2022/10/28 01:57:36;;;;;;;29.63;5.00;;;22.80;31.70;;;;;;5040110;28;20153;-62
2022/10/28 02:00:04;;;;;;;35.63;4.93;;;22.50;31.90;;;;;;5036353;28;20144;-60
2022/10/28 02:02:36;;;;;;;31.50;4.93;;;22.40;32.20;;;;;;5037223;28;20085;-59
2022/10/28 02:05:45;;;;;;;32.55;4.88;;;22.30;32.80;;;;;;5041403;28;20181;-60
2022/10/28 02:08:17;;;;;;;38.92;5.28;;;22.20;33.30;;;;;;5036293;28;20074;-58
2022/10/28 02:11:12;;;;;;;42.00;5.63;;;22.10;33.50;;;;;;5035254;28;20426;-62
2022/10/28 02:13:51;;;;;;;28.27;5.43;;;22.10;34.60;;;;;;5043013;28;20066;-64
2022/10/28 02:16:37;;;;;;;28.77;5.47;;;22.10;33.70;;;;;;5046715;28;20563;-62
2022/10/28 02:19:21;;;;;;;38.42;7.25;;;22.00;34.00;;;;;;5044034;28;20165;-65
2022/10/28 02:21:56;;;;;;;33.97;7.85;;;22.00;33.30;;;;;;5043012;28;20616;-61
2022/10/28 02:24:53;;;;;;;39.33;6.30;;;22.00;33.50;;;;;;5035824;28;20164;-57
2022/10/28 02:27:56;;;;;;;31.38;6.85;;;22.00;34.70;;;;;;5035532;28;20513;-57
2022/10/28 02:30:34;;;;;;;33.75;7.35;;;22.00;33.70;;;;;;5039158;28;20105;-59
2022/10/28 02:33:03;;;;;;;32.15;7.45;;;21.90;34.30;;;;;;5038121;28;20086;-57
2022/10/28 02:35:57;;;;;;;40.65;8.02;;;21.80;36.70;;;;;;5041098;28;20086;-58
2022/10/28 02:38:45;;;;;;;39.30;7.10;;;21.70;36.60;;;;;;5041531;28;20442;-56
2022/10/28 02:41:35;;;;;;;32.38;6.85;;;21.70;36.20;;;;;;5042846;28;20078;-57
2022/10/28 02:44:07;;;;;;;29.77;6.43;;;21.60;36.20;;;;;;5041329;28;20752;-56
2022/10/28 02:46:36;;;;;;;23.00;5.15;;;21.50;36.20;;;;;;5040566;28;20462;-59
2022/10/28 02:49:08;;;;;;;36.65;7.32;;;21.60;35.60;;;;;;5039902;28;20093;-57
2022/10/28 02:51:56;;;;;;;35.55;7.20;;;21.40;35.80;;;;;;5041705;28;20811;-55
2022/10/28 02:54:36;;;;;;;54.15;8.52;;;21.40;37.50;;;;;;5039591;28;20142;-57
2022/10/28 02:57:18;;;;;;;43.28;10.05;;;21.30;37.70;;;;;;5044186;28;20065;-61
2022/10/28 02:59:53;;;;;;;46.65;10.45;;;21.20;39.10;;;;;;5040114;28;20148;-58
2022/10/28 03:02:20;;;;;;;28.27;9.45;;;21.20;37.00;;;;;;5043136;28;20482;-57
2022/10/28 03:04:47;;;;;;;42.88;10.27;;;21.20;39.00;;;;;;5040034;28;20139;-57
2022/10/28 03:07:13;;;;;;;47.10;11.63;;;21.10;38.30;;;;;;5038718;28;20073;-54
2022/10/28 03:09:39;;;;;;;41.45;11.02;;;21.10;39.00;;;;;;5041876;28;20088;-54
2022/10/28 03:12:06;;;;;;;43.50;12.00;;;21.10;39.60;;;;;;5039172;28;20465;-60
2022/10/28 03:14:32;;;;;;;40.15;10.27;;;21.00;38.60;;;;;;5043872;28;20516;-55
2022/10/28 03:16:58;;;;;;;44.17;11.68;;;20.90;38.30;;;;;;5040659;28;20095;-56
2022/10/28 03:19:25;;;;;;;41.88;11.98;;;20.90;39.10;;;;;;5037629;28;20113;-57
2022/10/28 03:21:51;;;;;;;37.72;10.98;;;20.80;40.00;;;;;;5038090;28;20084;-60
2022/10/28 03:24:17;;;;;;;48.65;10.07;;;20.80;39.30;;;;;;5037495;28;20492;-59
2022/10/28 03:26:44;;;;;;;44.28;9.82;;;20.70;40.50;;;;;;5034310;28;20435;-55
2022/10/28 03:29:10;;;;;;;51.63;10.82;;;20.70;39.80;;;;;;5035150;28;20413;-58
2022/10/28 03:31:37;;;;;;;41.08;10.73;;;20.60;39.30;;;;;;5037041;28;20074;-60
2022/10/28 03:34:03;;;;;;;44.85;10.65;;;20.50;39.50;;;;;;5038548;28;20077;-55
2022/10/28 03:36:29;;;;;;;43.58;9.23;;;20.50;38.00;;;;;;5036775;28;20070;-61
2022/10/28 03:38:56;;;;;;;41.85;8.00;;;20.60;39.90;;;;;;5036245;28;20088;-57
2022/10/28 03:41:22;;;;;;;32.75;8.18;;;20.60;39.70;;;;;;5034796;28;20156;-55
2022/10/28 03:43:48;;;;;;;37.22;7.28;;;20.50;39.20;;;;;;5037673;28;20156;-61
2022/10/28 03:46:15;;;;;;;45.92;7.65;;;20.50;39.50;;;;;;5036590;28;20073;-57
2022/10/28 03:48:41;;;;;;;36.83;7.47;;;20.40;39.50;;;;;;5037093;28;20082;-58
2022/10/28 03:51:07;;;;;;;33.10;6.40;;;20.40;41.40;;;;;;5036415;28;20143;-57
2022/10/28 03:53:34;;;;;;;37.92;6.38;;;20.40;40.20;;;;;;5035388;28;20074;-55
2022/10/28 03:56:01;;;;;;;24.48;5.80;;;20.40;40.50;;;;;;5038490;28;20078;-61
2022/10/28 03:58:28;;;;;;;35.42;6.03;;;20.30;39.70;;;;;;5038773;28;20081;-56
2022/10/28 04:00:55;;;;;;;39.25;7.60;;;20.20;39.00;;;;;;5037036;28;20081;-62
2022/10/28 04:03:23;;;;;;;27.92;5.65;;;20.20;40.00;;;;;;5042208;28;20070;-56
2022/10/28 04:05:49;;;;;;;46.67;6.13;;;20.20;41.60;;;;;;5038480;28;20148;-56
2022/10/28 04:08:17;;;;;;;34.28;7.57;;;20.10;41.40;;;;;;5035244;28;20148;-62
2022/10/28 04:10:44;;;;;;;43.08;7.00;;;20.10;40.90;;;;;;5035462;28;20539;-63
2022/10/28 04:13:11;;;;;;;40.30;6.00;;;20.10;39.80;;;;;;5035211;28;20070;-62
2022/10/28 04:15:38;;;;;;;39.10;7.30;;;20.10;40.00;;;;;;5041366;28;20109;-58
2022/10/28 04:18:04;;;;;;;37.90;7.13;;;20.00;40.30;;;;;;5035982;28;20140;-61
2022/10/28 04:20:31;;;;;;;28.58;7.13;;;20.00;41.20;;;;;;5034282;28;20073;-57
2022/10/28 04:22:58;;;;;;;33.00;7.60;;;19.90;41.10;;;;;;5032067;28;20152;-61
2022/10/28 04:25:25;;;;;;;36.97;7.78;;;19.90;40.60;;;;;;5035691;28;20535;-56
2022/10/28 04:27:52;;;;;;;35.55;7.00;;;19.90;39.90;;;;;;5031653;28;20097;-57
2022/10/28 04:30:19;;;;;;;29.98;6.88;;;19.90;40.40;;;;;;5036710;28;20172;-56
2022/10/28 04:32:45;;;;;;;30.48;6.78;;;19.80;41.90;;;;;;5034583;28;20084;-58
2022/10/28 04:35:12;;;;;;;34.08;7.82;;;19.80;41.10;;;;;;5037934;28;20097;-61
2022/10/28 04:37:40;;;;;;;36.85;8.70;;;19.80;41.80;;;;;;5037010;28;20077;-57
2022/10/28 04:40:08;;;;;;;43.95;7.85;;;19.70;43.10;;;;;;5038310;28;20097;-61
2022/10/28 04:42:34;;;;;;;45.42;8.32;;;19.60;42.60;;;;;;5042429;28;20158;-63
2022/10/28 04:45:00;;;;;;;40.03;7.13;;;19.60;43.60;;;;;;5039207;28;20160;-60
2022/10/28 04:47:27;;;;;;;34.88;7.25;;;19.60;42.70;;;;;;5040662;28;20120;-64
2022/10/28 04:49:53;;;;;;;43.17;7.78;;;19.70;41.80;;;;;;5040962;28;20085;-62
2022/10/28 04:52:20;;;;;;;32.95;8.18;;;19.60;42.60;;;;;;5039857;28;20070;-61
2022/10/28 04:54:46;;;;;;;32.13;9.02;;;19.50;42.40;;;;;;5033652;28;20589;-62
2022/10/28 04:57:12;;;;;;;47.10;9.20;;;19.60;42.40;;;;;;5034291;28;20535;-61
2022/10/28 04:59:39;;;;;;;51.70;9.65;;;19.50;43.90;;;;;;5039088;28;20120;-60
2022/10/28 05:02:05;;;;;;;50.45;10.77;;;19.50;43.30;;;;;;5034891;28;20070;-59
2022/10/28 05:04:32;;;;;;;105.45;21.08;;;19.40;43.00;;;;;;5037975;28;20517;-61
2022/10/28 05:06:58;;;;;;;59.38;17.85;;;19.40;43.00;;;;;;5033017;28;20423;-62
2022/10/28 05:09:24;;;;;;;80.15;16.95;;;19.40;43.10;;;;;;5032601;28;20447;-60
2022/10/28 05:11:51;;;;;;;59.97;13.73;;;19.30;44.30;;;;;;5035767;28;20471;-59
2022/10/28 05:14:17;;;;;;;46.10;10.38;;;19.30;44.90;;;;;;5033877;28;20115;-59
2022/10/28 05:16:44;;;;;;;35.72;10.13;;;19.30;44.00;;;;;;5032313;28;20450;-62
2022/10/28 05:19:10;;;;;;;48.03;10.93;;;19.30;43.00;;;;;;5034884;28;20173;-63
2022/10/28 05:21:36;;;;;;;52.50;9.50;;;19.30;44.60;;;;;;5030340;28;20139;-62
2022/10/28 05:24:03;;;;;;;38.30;10.93;;;19.20;44.20;;;;;;5032581;28;20459;-57
2022/10/28 05:26:29;;;;;;;40.60;10.02;;;19.20;44.60;;;;;;5044502;28;20078;-60
2022/10/28 05:28:55;;;;;;;41.20;9.40;;;19.20;43.60;;;;;;5040572;28;20152;-64
2022/10/28 05:31:22;;;;;;;46.63;10.85;;;19.10;43.90;;;;;;5039895;28;20073;-59
2022/10/28 05:33:48;;;;;;;41.83;9.52;;;19.10;43.90;;;;;;5034955;28;20110;-62
2022/10/28 05:36:15;;;;;;;58.92;14.13;;;19.10;43.90;;;;;;5037592;28;20078;-57
2022/10/28 05:38:44;;;;;;;45.28;10.80;;;19.00;45.00;;;;;;5037194;28;20149;-58
2022/10/28 05:41:11;;;;;;;34.22;10.32;;;19.00;44.00;;;;;;5037602;28;20084;-57
2022/10/28 05:43:37;;;;;;;49.65;11.00;;;19.00;44.40;;;;;;5035941;28;20445;-57
2022/10/28 05:46:04;;;;;;;51.33;11.07;;;19.00;46.00;;;;;;5037641;28;20128;-57
2022/10/28 05:48:30;;;;;;;47.92;9.48;;;18.90;45.20;;;;;;5034107;28;20100;-62
2022/10/28 05:50:56;;;;;;;53.83;12.00;;;18.90;44.90;;;;;;5035239;28;20157;-59
2022/10/28 05:53:23;;;;;;;49.42;11.40;;;18.90;44.30;;;;;;5038241;28;20070;-63
2022/10/28 05:55:49;;;;;;;48.83;11.35;;;18.90;44.30;;;;;;5034764;28;20165;-58
2022/10/28 05:58:16;;;;;;;52.15;11.23;;;18.80;44.70;;;;;;5036444;28;20089;-63
2022/10/28 06:00:42;;;;;;;49.70;11.43;;;18.80;45.40;;;;;;5036882;28;20078;-59
2022/10/28 06:03:11;;;;;;;62.75;12.98;;;18.80;44.70;;;;;;5041294;28;20074;-59
2022/10/28 06:05:41;;;;;;;45.28;11.95;;;18.80;45.10;;;;;;5038432;28;20101;-61
2022/10/28 06:08:07;;;;;;;45.03;12.52;;;18.80;43.90;;;;;;5041087;28;20081;-57
2022/10/28 06:10:34;;;;;;;45.05;11.40;;;18.70;43.60;;;;;;5039040;28;20545;-60
2022/10/28 06:13:00;;;;;;;38.25;10.77;;;18.70;44.10;;;;;;5041006;28;20080;-60
2022/10/28 06:15:26;;;;;;;41.17;11.05;;;18.60;45.20;;;;;;5044949;28;20188;-59
2022/10/28 06:17:53;;;;;;;52.63;11.20;;;18.50;46.60;;;;;;5037538;28;20450;-59
2022/10/28 06:20:20;;;;;;;37.38;9.13;;;18.50;44.70;;;;;;5040900;28;20085;-58
2022/10/28 06:22:54;;;;;;;27.67;7.88;;;18.50;44.90;;;;;;5039714;28;20151;-56
2022/10/28 06:25:22;;;;;;;35.60;8.20;;;18.40;44.70;;;;;;5040463;28;20066;-57
2022/10/28 06:27:53;;;;;;;31.75;8.45;;;18.50;43.60;;;;;;5040501;28;20085;-59
2022/10/28 06:30:19;;;;;;;42.97;8.95;;;18.50;43.40;;;;;;5037964;28;20178;-57
2022/10/28 06:32:45;;;;;;;23.48;6.78;;;18.40;43.50;;;;;;5041744;28;20124;-59
2022/10/28 06:35:12;;;;;;;31.98;7.35;;;18.40;43.10;;;;;;5037164;28;20069;-57
2022/10/28 06:37:38;;;;;;;24.67;6.35;;;18.40;42.80;;;;;;5035793;28;20127;-57
2022/10/28 06:40:06;;;;;;;27.80;6.38;;;18.40;43.50;;;;;;5036213;28;20078;-58
2022/10/28 06:42:32;;;;;;;27.35;5.43;;;18.30;42.40;;;;;;5035336;28;20084;-58
2022/10/28 06:44:59;;;;;;;25.08;5.28;;;18.30;42.50;;;;;;5037204;28;20498;-58
2022/10/28 06:47:25;;;;;;;22.88;5.30;;;18.30;42.00;;;;;;5040976;28;21840;-57
2022/10/28 06:49:52;;;;;;;25.23;5.57;;;18.30;41.20;;;;;;5038628;28;20204;-57
2022/10/28 06:52:18;;;;;;;27.92;7.28;;;18.30;42.30;;;;;;5034532;28;20101;-60
2022/10/28 06:54:45;;;;;;;29.00;6.70;;;18.10;44.80;;;;;;5041845;28;20096;-59
2022/10/28 06:57:11;;;;;;;28.05;5.60;;;18.10;43.70;;;;;;5037696;28;20160;-58
2022/10/28 06:59:37;;;;;;;21.17;5.28;;;18.10;42.60;;;;;;5034911;28;20172;-59
2022/10/28 07:02:04;;;;;;;34.13;5.93;;;18.10;43.80;;;;;;5037988;28;20078;-59
2022/10/28 07:04:32;;;;;;;23.02;5.20;;;18.00;43.90;;;;;;5037355;28;20082;-57
2022/10/28 07:06:58;;;;;;;26.95;4.93;;;18.10;43.60;;;;;;5036332;28;20076;-62
2022/10/28 07:09:25;;;;;;;22.73;4.07;;;18.00;43.10;;;;;;5035427;28;20105;-61
2022/10/28 07:11:51;;;;;;;19.55;4.70;;;18.00;44.40;;;;;;5035335;28;20086;-61
2022/10/28 07:14:17;;;;;;;19.10;4.35;;;17.90;45.60;;;;;;5037735;28;20135;-58
2022/10/28 07:16:44;;;;;;;23.67;4.95;;;18.00;45.70;;;;;;5034871;28;20523;-62
2022/10/28 07:19:10;;;;;;;24.70;4.70;;;18.00;44.00;;;;;;5035496;28;20081;-61
2022/10/28 07:21:36;;;;;;;20.35;4.90;;;17.90;43.50;;;;;;5045462;28;20168;-58
2022/10/28 07:24:03;;;;;;;30.17;4.07;;;17.90;43.50;;;;;;5040624;28;20077;-59
2022/10/28 07:26:29;;;;;;;27.88;4.75;;;17.90;43.30;;;;;;5038282;28;21736;-58
2022/10/28 07:28:56;;;;;;;18.17;4.57;;;17.90;43.10;;;;;;5036225;28;20184;-58
2022/10/28 07:31:22;;;;;;;21.35;4.30;;;17.80;42.20;;;;;;5035044;28;20141;-58
2022/10/28 07:33:53;;;;;;;33.80;5.70;;;17.80;42.80;;;;;;5034917;28;20076;-62
2022/10/28 07:36:21;;;;;;;26.33;5.78;;;17.80;43.80;;;;;;5035042;28;20150;-59
2022/10/28 07:38:51;;;;;;;29.60;5.45;;;17.80;44.30;;;;;;5033606;28;20090;-58
2022/10/28 07:41:20;;;;;;;19.85;4.68;;;17.80;44.20;;;;;;5031690;28;20160;-62
2022/10/28 07:43:46;;;;;;;18.20;4.95;;;17.80;42.60;;;;;;5034709;28;20150;-56
2022/10/28 07:46:13;;;;;;;24.13;4.72;;;17.70;42.90;;;;;;5034719;28;20073;-57
2022/10/28 07:48:40;;;;;;;21.48;5.30;;;17.70;43.50;;;;;;5038054;28;20262;-57
2022/10/28 07:51:08;;;;;;;26.83;5.85;;;17.70;44.00;;;;;;5035124;28;20066;-58
2022/10/28 07:53:35;;;;;;;25.45;6.30;;;17.70;44.10;;;;;;5034561;28;20495;-60
2022/10/28 07:56:04;;;;;;;26.77;6.38;;;17.70;44.10;;;;;;5033714;28;20066;-56
2022/10/28 07:58:31;;;;;;;26.08;6.10;;;17.70;44.00;;;;;;5032586;28;20164;-57
2022/10/28 08:01:03;;;;;;;29.42;7.10;;;17.70;44.00;;;;;;5035557;28;20082;-62
2022/10/28 08:03:29;;;;;;;25.55;6.65;;;17.60;43.50;;;;;;5035956;28;20080;-62
2022/10/28 08:06:04;;;;;;;27.38;7.65;;;17.60;43.80;;;;;;5045288;28;20441;-59
2022/10/28 08:08:31;;;;;;;32.30;7.20;;;17.50;44.20;;;;;;5039043;28;20089;-57
2022/10/28 08:10:57;;;;;;;27.65;7.95;;;17.50;44.40;;;;;;5036794;28;20077;-56
2022/10/28 08:13:24;;;;;;;31.35;8.30;;;17.50;44.90;;;;;;5036467;28;20070;-59
2022/10/28 08:15:54;;;;;;;32.65;8.50;;;17.50;45.10;;;;;;5037236;28;20112;-61
2022/10/28 08:18:21;;;;;;;38.72;7.60;;;17.40;45.10;;;;;;5036449;28;20120;-62
2022/10/28 08:20:48;;;;;;;32.42;7.75;;;17.40;45.50;;;;;;5035264;28;20590;-61
2022/10/28 08:23:14;;;;;;;21.52;8.05;;;17.40;45.90;;;;;;5034006;28;20070;-58
2022/10/28 08:25:52;;;;;;;33.63;8.32;;;17.40;44.70;;;;;;5044678;28;20070;-58
2022/10/28 08:28:18;;;;;;;38.25;8.27;;;17.30;43.60;;;;;;5035453;28;20065;-62
2022/10/28 08:30:45;;;;;;;32.60;7.10;;;17.30;44.00;;;;;;5043106;28;20092;-58
2022/10/28 08:33:13;;;;;;;20.83;6.07;;;17.20;44.50;;;;;;5040557;28;20558;-58
2022/10/28 08:35:40;;;;;;;25.98;7.72;;;17.10;44.80;;;;;;5040068;28;20078;-59
2022/10/28 08:38:07;;;;;;;26.20;7.13;;;17.00;44.90;;;;;;5035260;28;20077;-62
2022/10/28 08:40:50;;;;;;;23.77;7.53;;;17.00;45.00;;;;;;5034570;28;20089;-58
2022/10/28 08:43:42;;;;;;;25.58;6.47;;;17.00;45.30;;;;;;5032593;28;20098;-63
2022/10/28 08:46:13;;;;;;;24.60;6.53;;;16.90;45.80;;;;;;5048318;28;20084;-58
2022/10/28 08:48:40;;;;;;;24.83;6.47;;;16.90;46.00;;;;;;5031713;28;20118;-61
2022/10/28 08:51:32;;;;;;;31.17;6.28;;;16.90;46.10;;;;;;5032032;28;20156;-59
2022/10/28 08:54:05;;;;;;;29.05;6.55;;;16.80;45.90;;;;;;5036845;28;20152;-63
2022/10/28 08:56:44;;;;;;;22.98;6.78;;;16.60;46.30;;;;;;5034710;28;20160;-63
2022/10/28 08:59:43;;;;;;;34.70;7.63;;;16.60;47.70;;;;;;5034977;28;20116;-62
2022/10/28 09:02:25;;;;;;;24.95;6.50;;;16.60;46.80;;;;;;4993911;28;20105;-59
2022/10/28 09:04:56;;;;;;;25.77;5.72;;;16.60;46.10;;;;;;4991319;28;20646;-59
2022/10/28 09:07:24;;;;;;;24.55;5.78;;;16.60;46.30;;;;;;4992505;28;20161;-63
2022/10/28 09:09:52;;;;;;;26.50;6.15;;;16.60;47.30;;;;;;4998090;28;20090;-62
2022/10/28 09:12:22;;;;;;;25.80;6.03;;;16.60;46.40;;;;;;4993928;28;20081;-62
2022/10/28 09:15:13;;;;;;;28.00;6.25;;;16.40;48.20;;;;;;4995458;28;20551;-59
2022/10/28 09:18:10;;;;;;;30.35;6.15;;;16.50;47.50;;;;;;4988776;28;20081;-57
2022/10/28 09:20:55;;;;;;;17.52;5.43;;;16.50;46.70;;;;;;4989477;28;20583;-61
2022/10/28 09:23:31;;;;;;;42.20;6.82;;;16.40;46.80;;;;;;4990248;28;20083;-60
2022/10/28 09:26:12;;;;;;;31.15;5.95;;;16.40;47.10;;;;;;4992428;28;20093;-59
2022/10/28 09:29:01;;;;;;;25.90;5.95;;;16.30;47.10;;;;;;5003052;28;20181;-58
2022/10/28 09:31:36;;;;;;;43.53;7.20;;;16.20;48.40;;;;;;4996384;28;20079;-62
2022/10/28 09:34:24;;;;;;;35.53;7.18;;;16.20;49.10;;;;;;4990522;28;20598;-60
2022/10/28 09:37:21;;;;;;;33.30;6.28;;;16.20;48.70;;;;;;4991068;28;20075;-59
2022/10/28 09:39:52;;;;;;;25.23;5.72;;;16.30;48.70;;;;;;5033979;28;20097;-57
2022/10/28 09:42:42;;;;;;;33.63;6.13;;;16.20;47.70;;;;;;5032254;28;20117;-63
2022/10/28 09:45:18;;;;;;;25.60;5.93;;;16.20;47.50;;;;;;5035819;28;20096;-59
2022/10/28 09:47:55;;;;;;;20.10;7.13;;;16.10;47.90;;;;;;5041158;28;20092;-63
2022/10/28 09:50:27;;;;;;;25.30;6.07;;;16.10;47.80;;;;;;5031850;28;20188;-62
2022/10/28 09:52:59;;;;;;;37.95;7.13;;;16.10;48.40;;;;;;5032556;28;20093;-61
2022/10/28 09:55:26;;;;;;;27.90;6.05;;;16.00;48.10;;;;;;5037284;28;20132;-62
2022/10/28 09:57:52;;;;;;;17.33;5.47;;;16.10;47.80;;;;;;5036746;28;20119;-59
2022/10/28 10:00:18;;;;;;;;;;;16.20;47.30;;;;;;5042902;28;20074;-57
2022/10/28 10:02:45;;;;;;;27.85;5.40;;;16.10;47.20;;;;;;5038508;28;21487;-62
2022/10/28 10:05:13;;;;;;;27.98;5.50;;;16.10;47.20;;;;;;5036356;28;20161;-62
2022/10/28 10:07:51;;;;;;;27.38;5.80;;;16.20;47.30;;;;;;5037290;28;20073;-57
2022/10/28 10:10:29;;;;;;;24.73;5.53;;;16.10;47.30;;;;;;5036946;28;20092;-62
2022/10/28 10:13:00;;;;;;;25.75;5.55;;;16.10;47.60;;;;;;5037840;28;20089;-58
2022/10/28 10:15:44;;;;;;;31.23;6.43;;;16.10;47.90;;;;;;5040257;28;20180;-62
2022/10/28 10:18:23;;;;;;;28.52;5.53;;;16.10;47.90;;;;;;5034866;28;20070;-56
2022/10/28 10:20:57;;;;;;;26.13;7.13;;;16.00;47.70;;;;;;5042313;28;20073;-63
2022/10/28 10:23:33;;;;;;;27.17;5.95;;;15.90;47.90;;;;;;5038445;28;20189;-58
2022/10/28 10:26:08;;;;;;;32.78;7.20;;;15.90;47.60;;;;;;5038812;28;20082;-63
2022/10/28 10:28:50;;;;;;;46.90;8.70;;;15.70;49.10;;;;;;5032476;28;20073;-63
2022/10/28 10:31:25;;;;;;;30.67;7.97;;;15.60;48.80;;;;;;5040846;28;20074;-59
2022/10/28 10:34:01;;;;;;;37.90;9.13;;;15.60;49.50;;;;;;5036800;28;20356;-58
2022/10/28 10:36:30;;;;;;;41.90;9.57;;;15.40;49.40;;;;;;5035916;28;21546;-61
2022/10/28 10:38:58;;;;;;;42.53;9.77;;;15.60;49.60;;;;;;5039633;28;20074;-58
2022/10/28 10:41:40;;;;;;;40.53;10.45;;;15.60;49.50;;;;;;5036876;28;20435;-62
2022/10/28 10:44:21;;;;;;;35.38;9.38;;;15.50;50.60;;;;;;5034315;28;20169;-59
2022/10/28 10:47:00;;;;;;;40.05;10.23;;;15.50;50.00;;;;;;5037229;28;20077;-61
2022/10/28 10:49:28;;;;;;;40.05;9.85;;;15.60;49.80;;;;;;5035800;28;20098;-56
2022/10/28 10:52:06;;;;;;;47.55;10.68;;;15.60;49.70;;;;;;5036561;28;20165;-61
2022/10/28 10:54:35;;;;;;;42.72;9.85;;;15.60;49.90;;;;;;5037437;28;20105;-56
2022/10/28 10:57:20;;;;;;;51.33;11.43;;;15.60;50.00;;;;;;5034486;28;20074;-60
2022/10/28 10:59:51;;;;;;;37.72;10.35;;;15.70;49.30;;;;;;5037607;28;20181;-61
2022/10/28 11:02:28;;;;;;;60.63;11.68;;;15.70;49.80;;;;;;5035072;28;20090;-62
2022/10/28 11:04:59;;;;;;;35.28;10.35;;;15.60;50.10;;;;;;5035181;28;20089;-58
2022/10/28 11:07:27;;;;;;;49.95;11.98;;;15.70;50.10;;;;;;5036569;28;20081;-63
2022/10/28 11:09:54;;;;;;;46.65;11.68;;;15.60;50.20;;;;;;5035534;28;20200;-58
2022/10/28 11:12:30;;;;;;;47.00;9.95;;;15.50;50.40;;;;;;5033988;28;20097;-59
2022/10/28 11:15:15;;;;;;;52.08;10.68;;;15.50;50.90;;;;;;5044418;28;20577;-58
2022/10/28 11:17:59;;;;;;;56.38;10.50;;;15.50;51.20;;;;;;5037234;28;20123;-62
2022/10/28 11:21:13;;;;;;;44.15;11.05;;;15.60;50.80;;;;;;5042659;28;20861;-62
2022/10/28 11:24:22;;;;;;;47.03;10.50;;;15.60;50.60;;;;;;4971033;28;20095;-62
2022/10/28 11:27:01;;;;;;;49.75;11.15;;;15.50;50.90;;;;;;4959722;28;20170;-62
2022/10/28 11:29:28;;;;;;;46.72;9.93;;;15.50;51.20;;;;;;4973023;28;20472;-61
2022/10/28 11:32:10;;;;;;;45.03;10.20;;;15.50;51.80;;;;;;4970672;28;20079;-57
2022/10/28 11:34:45;;;;;;;45.10;10.23;;;15.50;51.80;;;;;;4972549;28;20082;-57
2022/10/28 11:37:19;;;;;;;42.47;11.35;;;15.40;51.70;;;;;;4969837;28;20083;-62
2022/10/28 11:40:04;;;;;;;44.15;11.05;;;15.20;52.80;;;;;;4969246;28;20102;-63
2022/10/28 11:43:18;;;;;;;44.28;10.30;;;15.20;53.00;;;;;;4970127;28;20087;-58
2022/10/28 11:46:17;;;;;;;46.88;11.35;;;15.20;53.00;;;;;;4970139;28;20523;-62
2022/10/28 11:49:04;;;;;;;40.83;10.70;;;15.20;52.70;;;;;;4968627;28;20556;-58
2022/10/28 11:51:50;;;;;;;42.22;10.70;;;15.10;53.40;;;;;;4970303;28;20083;-62
2022/10/28 11:55:01;;;;;;;50.72;11.27;;;15.10;53.00;;;;;;4969477;28;20091;-58
2022/10/28 11:57:33;;;;;;;42.28;11.27;;;15.10;53.30;;;;;;4931220;29;20094;-63
2022/10/28 12:00:05;;;;;;;46.15;10.75;;;15.20;52.30;;;;;;4965111;28;20166;-63
2022/10/28 12:02:53;;;;;;;39.33;10.40;;;15.30;52.00;;;;;;4968425;28;20241;-62
2022/10/28 12:05:34;;;;;;;40.60;10.52;;;15.30;52.10;;;;;;4968357;28;20107;-63
2022/10/28 12:08:12;;;;;;;36.80;10.20;;;15.20;51.90;;;;;;4968091;28;20087;-62
2022/10/28 12:10:57;;;;;;;33.58;9.88;;;15.10;51.60;;;;;;4968762;28;20129;-63
2022/10/28 12:13:38;;;;;;;38.95;9.93;;;15.20;51.80;;;;;;4968728;28;20075;-58
2022/10/28 12:16:40;;;;;;;32.75;10.50;;;15.10;51.70;;;;;;4966859;28;20186;-63
2022/10/28 12:19:47;;;;;;;40.88;9.20;;;15.20;51.60;;;;;;4961478;28;20208;-62
2022/10/28 12:22:31;;;;;;;38.80;11.05;;;15.20;51.80;;;;;;4944595;29;20231;-63
2022/10/28 12:25:06;;;;;;;37.88;11.00;;;15.10;51.40;;;;;;4944964;29;20084;-58
2022/10/28 12:27:39;;;;;;;42.47;11.95;;;15.10;51.60;;;;;;4962344;28;20462;-63
2022/10/28 12:30:20;;;;;;;42.35;13.70;;;15.00;51.50;;;;;;4992576;28;20106;-62
2022/10/28 12:32:53;;;;;;;45.78;13.77;;;15.10;50.70;;;;;;4991346;28;20074;-57
2022/10/28 12:35:22;;;;;;;49.58;14.07;;;15.00;50.10;;;;;;4992981;28;20098;-57
2022/10/28 12:38:02;;;;;;;46.33;13.40;;;15.10;50.80;;;;;;4993388;28;20094;-62
2022/10/28 12:40:39;;;;;;;41.53;13.48;;;15.10;50.70;;;;;;4993204;28;20089;-63
2022/10/28 12:43:11;;;;;;;47.47;14.88;;;15.00;50.60;;;;;;4993608;28;20133;-62
2022/10/28 12:45:39;;;;;;;45.80;14.27;;;15.00;50.80;;;;;;4994933;28;20118;-63
2022/10/28 12:48:21;;;;;;;51.58;14.65;;;14.90;51.10;;;;;;4995650;28;20091;-62
2022/10/28 12:50:56;;;;;;;50.83;14.73;;;14.90;51.50;;;;;;4995334;28;20133;-63
2022/10/28 12:53:42;;;;;;;56.00;13.95;;;14.80;51.40;;;;;;4998125;28;20080;-63
2022/10/28 12:56:17;;;;;;;50.42;13.45;;;14.90;51.70;;;;;;4993264;28;20095;-62
2022/10/28 12:58:52;;;;;;;38.75;13.02;;;14.80;51.50;;;;;;5019293;28;20089;-62
2022/10/28 13:01:22;;;;;;;44.22;14.70;;;14.80;51.60;;;;;;5032332;28;20107;-60
2022/10/28 13:03:51;;;;;;;39.72;12.60;;;14.80;52.00;;;;;;5037879;28;20098;-60
2022/10/28 13:06:51;;;;;;;37.90;12.00;;;14.80;52.40;;;;;;5036917;28;20151;-59